Time;durP1;ratioP1;P1;durP2;ratioP2;P2;SDS_P1;SDS_P2;PMS_P1;PMS_P2;Temp;Humidity;BMP_temperature;BMP_pressure;BME280_temperature;BME280_humidity;BME280_pressure;Samples;Min_cycle;Max_cycle;Signal;HPM_P1;HPM_P2
2021/12/23 00:02:08;;;;;;;52.47;28.88;;;13.70;99.10;;;;;;4986012;28;116150;-68
2021/12/23 00:04:34;;;;;;;74.57;38.08;;;13.70;99.90;;;;;;4986335;28;113024;-68
2021/12/23 00:07:00;;;;;;;58.92;30.65;;;13.70;99.90;;;;;;5004148;28;112285;-67
2021/12/23 00:09:40;;;;;;;57.72;31.70;;;13.70;99.90;;;;;;4986278;28;112704;-66
2021/12/23 00:12:07;;;;;;;55.70;29.27;;;13.70;99.90;;;;;;5021921;28;113689;-68
2021/12/23 00:14:34;;;;;;;47.97;24.05;;;13.70;99.90;;;;;;5023648;28;112721;-67
2021/12/23 00:17:19;;;;;;;50.40;24.80;;;13.60;99.90;;;;;;5024068;28;112280;-70
2021/12/23 00:25:14;;;;;;;15.63;9.30;;;13.50;99.90;;;;;;5002631;28;112729;-67
2021/12/23 00:27:39;;;;;;;16.80;10.07;;;13.60;99.90;;;;;;4986377;28;112396;-68
2021/12/23 00:30:06;;;;;;;16.10;9.23;;;13.50;99.90;;;;;;5004248;28;113172;-69
2021/12/23 00:32:32;;;;;;;19.90;10.27;;;13.50;99.90;;;;;;5003648;28;113563;-67
2021/12/23 00:34:58;;;;;;;16.58;9.63;;;13.50;99.90;;;;;;5004016;28;114177;-68
2021/12/23 00:37:23;;;;;;;15.35;8.65;;;13.50;99.90;;;;;;5003974;28;112717;-67
2021/12/23 00:39:49;;;;;;;18.13;9.30;;;13.50;99.90;;;;;;4986288;28;112728;-66
2021/12/23 00:42:15;;;;;;;15.60;9.38;;;13.50;99.90;;;;;;5001361;28;113585;-67
2021/12/23 00:44:45;;;;;;;16.10;9.35;;;13.50;99.90;;;;;;4984670;28;114376;-68
2021/12/23 00:47:12;;;;;;;14.25;9.23;;;13.40;99.90;;;;;;5004645;28;112509;-67
2021/12/23 00:49:38;;;;;;;14.80;9.32;;;13.40;99.90;;;;;;5004529;28;112268;-66
2021/12/23 00:52:06;;;;;;;15.30;9.13;;;13.40;99.90;;;;;;5002556;28;116605;-68
2021/12/23 00:54:32;;;;;;;18.67;11.00;;;13.40;99.90;;;;;;4986224;28;113454;-68
2021/12/23 00:56:59;;;;;;;15.88;9.38;;;13.30;99.90;;;;;;5004424;28;112399;-68
2021/12/23 00:59:25;;;;;;;14.07;9.10;;;13.30;99.90;;;;;;4985427;28;112551;-69
2021/12/23 01:01:51;;;;;;;14.98;8.45;;;13.30;99.90;;;;;;5004111;28;114126;-69
2021/12/23 01:04:17;;;;;;;14.05;8.88;;;13.30;99.90;;;;;;4984667;28;113713;-67
2021/12/23 01:06:43;;;;;;;14.82;7.82;;;13.20;99.90;;;;;;5002500;28;112638;-68
2021/12/23 01:09:09;;;;;;;14.57;9.70;;;13.20;99.90;;;;;;4985563;28;112468;-69
2021/12/23 01:11:35;;;;;;;15.88;8.88;;;13.20;99.90;;;;;;5017277;28;114495;-67
2021/12/23 01:17:11;;;;;;;13.57;8.60;;;13.20;99.90;;;;;;5023791;28;112331;-68
2021/12/23 01:19:39;;;;;;;16.45;8.43;;;13.20;99.90;;;;;;5023731;28;112957;-68
2021/12/23 01:22:06;;;;;;;;;;;13.20;99.90;;;;;;5023791;28;114857;-69
2021/12/23 01:24:33;;;;;;;13.10;7.60;;;13.20;99.90;;;;;;5005833;28;112803;-66
2021/12/23 01:27:00;;;;;;;16.35;8.82;;;13.10;99.90;;;;;;5005896;28;112513;-68
2021/12/23 01:29:26;;;;;;;14.07;8.32;;;13.10;99.90;;;;;;5012960;28;112550;-66
2021/12/23 01:31:52;;;;;;;15.57;8.00;;;13.10;99.90;;;;;;4984975;28;113530;-67
2021/12/23 01:34:17;;;;;;;13.85;7.90;;;13.10;99.90;;;;;;5001545;28;113563;-67
2021/12/23 01:36:43;;;;;;;12.25;8.32;;;13.10;99.90;;;;;;5002905;28;112678;-65
2021/12/23 01:39:09;;;;;;;14.80;8.18;;;13.10;99.90;;;;;;4986133;28;112736;-67
2021/12/23 01:41:35;;;;;;;13.40;7.55;;;13.10;99.90;;;;;;5003002;28;113052;-66
2021/12/23 01:44:01;;;;;;;15.27;8.38;;;13.10;99.90;;;;;;5002990;28;112422;-69
2021/12/23 01:46:27;;;;;;;16.15;9.25;;;13.10;99.90;;;;;;5003342;28;113559;-66
2021/12/23 01:48:53;;;;;;;16.40;8.38;;;13.10;99.90;;;;;;5003960;28;112389;-67
2021/12/23 01:51:20;;;;;;;13.32;7.47;;;13.10;99.90;;;;;;5003038;28;114124;-67
2021/12/23 01:53:45;;;;;;;15.00;8.60;;;13.10;99.90;;;;;;5002965;28;112967;-67
2021/12/23 01:56:11;;;;;;;14.77;9.55;;;13.10;99.90;;;;;;5002946;28;112708;-67
2021/12/23 01:58:39;;;;;;;14.18;9.35;;;13.20;99.90;;;;;;5002525;28;112575;-69
2021/12/23 02:01:05;;;;;;;13.98;8.32;;;13.20;99.90;;;;;;5002437;28;113968;-67
2021/12/23 02:03:31;;;;;;;17.10;9.18;;;13.30;99.90;;;;;;5003321;28;112614;-66
2021/12/23 02:05:57;;;;;;;17.88;8.27;;;13.30;99.90;;;;;;5002663;28;112751;-68
2021/12/23 02:08:23;;;;;;;16.40;8.07;;;13.40;99.90;;;;;;5003063;28;112403;-67
2021/12/23 02:10:49;;;;;;;12.20;7.88;;;13.40;99.90;;;;;;5010359;28;114143;-67
2021/12/23 02:13:15;;;;;;;17.02;8.35;;;13.50;99.90;;;;;;5022601;28;113185;-68
2021/12/23 02:15:41;;;;;;;15.38;9.57;;;13.50;99.90;;;;;;5004400;27;112739;-68
2021/12/23 02:18:07;;;;;;;16.48;8.52;;;13.50;99.90;;;;;;5025933;28;113668;-67
2021/12/23 02:20:34;;;;;;;17.42;8.70;;;13.50;99.90;;;;;;5026409;28;113119;-68
2021/12/23 02:23:02;;;;;;;15.25;7.68;;;13.50;99.90;;;;;;5007308;28;114435;-68
2021/12/23 02:25:28;;;;;;;15.88;8.63;;;13.60;99.90;;;;;;5026923;28;112910;-68
2021/12/23 02:27:55;;;;;;;16.35;8.38;;;13.60;99.90;;;;;;5027233;28;112344;-67
2021/12/23 02:30:27;;;;;;;17.08;8.63;;;13.60;99.90;;;;;;5025421;28;114380;-68
2021/12/23 02:32:54;;;;;;;20.98;9.18;;;13.60;99.90;;;;;;5025298;28;113769;-66
2021/12/23 02:35:22;;;;;;;14.10;9.05;;;13.60;99.90;;;;;;5025777;28;112617;-68
2021/12/23 02:37:49;;;;;;;20.60;9.68;;;13.60;99.90;;;;;;5027326;28;113063;-67
2021/12/23 02:40:28;;;;;;;14.50;8.73;;;13.70;99.90;;;;;;5026125;28;113137;-67
2021/12/23 02:42:55;;;;;;;;;;;13.70;99.90;;;;;;5025908;28;112656;-67
2021/12/23 02:45:21;;;;;;;14.73;7.75;;;13.70;99.90;;;;;;5027293;28;112345;-67
2021/12/23 02:47:47;;;;;;;16.05;7.18;;;13.80;99.90;;;;;;5025440;28;113622;-66
2021/12/23 02:50:13;;;;;;;13.73;7.50;;;13.80;99.90;;;;;;5025711;28;113175;-69
2021/12/23 02:52:38;;;;;;;10.25;6.10;;;13.80;99.90;;;;;;5025031;28;112704;-67
2021/12/23 02:55:05;;;;;;;13.35;5.63;;;13.80;99.90;;;;;;5025880;28;112646;-66
2021/12/23 02:57:32;;;;;;;10.65;5.63;;;13.90;99.90;;;;;;5008863;28;112459;-68
2021/12/23 02:59:58;;;;;;;10.75;6.00;;;13.90;99.90;;;;;;5025025;28;113248;-67
2021/12/23 03:02:24;;;;;;;9.77;6.22;;;13.90;99.90;;;;;;5025131;28;113159;-67
2021/12/23 03:04:49;;;;;;;11.25;6.22;;;13.90;99.90;;;;;;5026033;28;112499;-66
2021/12/23 03:07:15;;;;;;;7.97;5.10;;;13.90;99.90;;;;;;5007947;28;112482;-68
2021/12/23 03:09:45;;;;;;;7.20;4.50;;;13.90;99.90;;;;;;5024951;28;113566;-68
2021/12/23 03:12:11;;;;;;;8.40;4.75;;;13.80;99.90;;;;;;5024501;28;112439;-67
2021/12/23 03:14:37;;;;;;;8.85;5.32;;;13.90;99.90;;;;;;5007913;28;112854;-67
2021/12/23 03:17:03;;;;;;;11.50;6.60;;;13.80;99.90;;;;;;5025645;28;112418;-68
2021/12/23 03:19:29;;;;;;;10.15;5.78;;;13.80;99.90;;;;;;5006925;28;112995;-67
2021/12/23 03:21:55;;;;;;;8.82;5.72;;;13.80;99.90;;;;;;5025095;28;113672;-68
2021/12/23 03:24:20;;;;;;;8.10;5.28;;;13.80;99.90;;;;;;5026060;28;112300;-67
2021/12/23 03:26:46;;;;;;;8.18;5.40;;;13.80;99.90;;;;;;5025577;28;112411;-67
2021/12/23 03:29:12;;;;;;;9.98;6.57;;;13.80;99.90;;;;;;5024924;27;114468;-68
2021/12/23 03:31:38;;;;;;;10.20;5.60;;;13.80;99.90;;;;;;5007040;28;113542;-67
2021/12/23 03:34:05;;;;;;;7.85;5.88;;;13.80;99.90;;;;;;5025873;28;112619;-65
2021/12/23 03:36:31;;;;;;;7.28;5.38;;;13.70;99.90;;;;;;5024742;28;112566;-68
2021/12/23 03:38:57;;;;;;;12.45;6.57;;;13.70;99.90;;;;;;5024862;28;114086;-68
2021/12/23 03:41:23;;;;;;;9.13;5.93;;;13.70;99.90;;;;;;5025361;28;112841;-67
2021/12/23 03:43:48;;;;;;;10.68;5.85;;;13.80;99.90;;;;;;5025774;28;112652;-68
2021/12/23 03:46:14;;;;;;;9.25;5.97;;;13.80;99.90;;;;;;5025741;28;112828;-67
2021/12/23 03:48:40;;;;;;;9.23;6.55;;;13.80;99.90;;;;;;5024488;28;114276;-70
2021/12/23 03:51:06;;;;;;;12.82;6.18;;;13.80;99.90;;;;;;5025403;28;113397;-68
2021/12/23 03:53:32;;;;;;;9.55;6.20;;;13.80;99.90;;;;;;5025825;28;114064;-68
2021/12/23 03:55:58;;;;;;;10.68;6.60;;;13.80;99.90;;;;;;5025914;28;112671;-67
2021/12/23 03:58:24;;;;;;;9.70;5.78;;;13.80;99.90;;;;;;5024970;28;113388;-67
2021/12/23 04:00:50;;;;;;;8.77;5.70;;;13.80;99.90;;;;;;5022739;28;112440;-68
2021/12/23 04:03:16;;;;;;;9.75;6.25;;;13.80;99.90;;;;;;5024774;28;112591;-68
2021/12/23 04:05:42;;;;;;;13.10;7.15;;;13.70;99.90;;;;;;5025142;28;112639;-68
2021/12/23 04:08:08;;;;;;;10.15;7.07;;;13.70;99.90;;;;;;5006324;28;116669;-68
2021/12/23 04:10:34;;;;;;;12.15;7.20;;;13.80;99.90;;;;;;5024523;28;112965;-69
2021/12/23 04:13:00;;;;;;;14.25;7.82;;;13.80;99.90;;;;;;5007079;28;112677;-67
2021/12/23 04:15:26;;;;;;;12.05;7.13;;;13.80;99.90;;;;;;5025195;28;112608;-67
2021/12/23 04:17:52;;;;;;;10.90;6.60;;;13.80;99.90;;;;;;5023783;28;113004;-68
2021/12/23 04:20:31;;;;;;;19.95;10.73;;;13.80;99.90;;;;;;5024387;28;112895;-68
2021/12/23 04:22:57;;;;;;;16.57;7.97;;;13.80;99.90;;;;;;4990545;28;112461;-69
2021/12/23 04:25:26;;;;;;;15.27;8.18;;;13.80;99.90;;;;;;5024178;28;112657;-66
2021/12/23 04:27:54;;;;;;;12.90;7.40;;;13.80;99.90;;;;;;5023892;28;113688;-68
2021/12/23 04:30:22;;;;;;;13.93;7.43;;;13.80;99.90;;;;;;5023871;28;112581;-67
2021/12/23 04:32:49;;;;;;;10.75;6.72;;;13.80;99.90;;;;;;5024301;28;112418;-67
2021/12/23 04:35:15;;;;;;;13.13;6.00;;;13.80;99.90;;;;;;5025359;28;112723;-68
2021/12/23 04:37:42;;;;;;;12.07;6.45;;;13.80;99.90;;;;;;5024250;28;112911;-67
2021/12/23 04:40:10;;;;;;;12.15;7.15;;;13.80;99.90;;;;;;5023168;27;112385;-67
2021/12/23 04:42:37;;;;;;;11.30;6.25;;;13.90;99.90;;;;;;5024827;28;112349;-67
2021/12/23 04:45:05;;;;;;;10.88;6.85;;;13.90;99.90;;;;;;5025255;28;112306;-68
2021/12/23 04:47:30;;;;;;;13.32;6.68;;;13.90;99.90;;;;;;5024196;28;116209;-68
2021/12/23 04:49:56;;;;;;;9.88;6.20;;;13.90;99.90;;;;;;5023564;28;113823;-69
2021/12/23 04:52:23;;;;;;;8.80;6.15;;;14.00;99.90;;;;;;5024497;28;112734;-67
2021/12/23 04:54:49;;;;;;;7.45;5.10;;;14.00;99.90;;;;;;5025353;28;112448;-67
2021/12/23 04:57:14;;;;;;;9.07;6.03;;;14.00;99.90;;;;;;5023639;28;114399;-68
2021/12/23 04:59:40;;;;;;;11.90;5.57;;;14.00;99.90;;;;;;5024162;28;112835;-67
2021/12/23 05:02:06;;;;;;;6.65;4.82;;;14.00;99.90;;;;;;5024358;28;112534;-68
2021/12/23 05:04:32;;;;;;;8.38;4.38;;;14.00;99.90;;;;;;5024665;28;112387;-67
2021/12/23 05:06:57;;;;;;;7.13;4.60;;;14.10;99.90;;;;;;5024048;28;112941;-67
2021/12/23 05:09:23;;;;;;;16.00;5.57;;;14.10;99.90;;;;;;5024037;28;112399;-66
2021/12/23 05:11:49;;;;;;;15.57;5.78;;;14.10;99.90;;;;;;5008285;28;112753;-68
2021/12/23 05:14:15;;;;;;;8.50;5.53;;;14.10;99.90;;;;;;5003944;28;112525;-68
2021/12/23 05:16:40;;;;;;;7.72;4.55;;;14.10;99.90;;;;;;5003111;28;114330;-66
2021/12/23 05:19:06;;;;;;;10.18;5.38;;;14.10;99.90;;;;;;4984741;28;112733;-68
2021/12/23 05:21:32;;;;;;;8.98;5.40;;;14.10;99.90;;;;;;4986161;28;112682;-66
2021/12/23 05:23:58;;;;;;;6.03;4.80;;;14.10;99.90;;;;;;5003488;28;112375;-70
2021/12/23 05:26:24;;;;;;;7.95;5.00;;;14.00;99.90;;;;;;5003469;28;114363;-67
2021/12/23 05:28:49;;;;;;;7.00;5.32;;;14.10;99.90;;;;;;4985079;28;115261;-65
2021/12/23 05:31:15;;;;;;;11.38;6.30;;;14.00;99.90;;;;;;5003916;28;112713;-69
2021/12/23 05:33:41;;;;;;;10.27;6.05;;;14.00;99.90;;;;;;5004340;28;112527;-67
2021/12/23 05:36:08;;;;;;;12.63;6.35;;;14.00;99.90;;;;;;5003358;28;114048;-68
2021/12/23 05:38:33;;;;;;;14.02;5.65;;;14.00;99.90;;;;;;5002813;28;112911;-68
2021/12/23 05:40:59;;;;;;;10.90;5.57;;;14.00;99.90;;;;;;4985146;28;112740;-68
2021/12/23 05:43:25;;;;;;;7.30;4.43;;;14.00;99.90;;;;;;5004876;28;112531;-67
2021/12/23 05:45:53;;;;;;;8.30;3.95;;;14.00;99.90;;;;;;4985607;28;113691;-67
2021/12/23 05:48:18;;;;;;;12.13;6.50;;;14.00;99.90;;;;;;5003556;28;113928;-71
2021/12/23 05:50:44;;;;;;;16.92;6.70;;;14.00;99.90;;;;;;5003867;28;112329;-69
2021/12/23 05:53:10;;;;;;;9.95;5.22;;;14.00;99.90;;;;;;5006535;28;114268;-68
2021/12/23 05:55:36;;;;;;;12.20;6.78;;;14.00;99.90;;;;;;5006962;28;113086;-67
2021/12/23 05:58:02;;;;;;;13.77;6.03;;;14.00;99.90;;;;;;5006120;28;113004;-67
2021/12/23 06:00:30;;;;;;;10.15;5.43;;;14.00;99.90;;;;;;5009935;28;112474;-68
2021/12/23 06:02:56;;;;;;;18.98;5.97;;;14.00;99.90;;;;;;5026376;28;112449;-68
2021/12/23 06:05:23;;;;;;;11.13;5.20;;;14.10;99.90;;;;;;5008076;28;115402;-66
2021/12/23 06:07:49;;;;;;;14.40;5.35;;;14.10;99.90;;;;;;5008623;28;112904;-67
2021/12/23 06:10:16;;;;;;;11.65;6.78;;;14.10;99.90;;;;;;5005719;28;112866;-67
2021/12/23 06:12:42;;;;;;;13.90;6.50;;;14.10;99.90;;;;;;5007278;28;112799;-69
2021/12/23 06:15:10;;;;;;;15.27;6.75;;;14.10;99.90;;;;;;5005757;28;114545;-67
2021/12/23 06:17:36;;;;;;;16.55;6.35;;;14.20;99.90;;;;;;5005982;28;113086;-70
2021/12/23 06:20:04;;;;;;;19.10;7.55;;;14.20;99.90;;;;;;5016289;22;112747;-69
2021/12/23 06:22:33;;;;;;;15.48;8.07;;;14.20;99.90;;;;;;5006725;28;113234;-69
2021/12/23 06:24:59;;;;;;;14.82;6.97;;;14.20;99.90;;;;;;5005558;28;113468;-68
2021/12/23 06:27:25;;;;;;;14.15;7.05;;;14.20;99.90;;;;;;5005518;28;113026;-69
2021/12/23 06:29:50;;;;;;;19.50;9.30;;;14.30;99.90;;;;;;4988200;28;112454;-70
2021/12/23 06:32:16;;;;;;;10.52;6.97;;;14.30;99.90;;;;;;4988602;28;112387;-66
2021/12/23 06:34:42;;;;;;;15.80;6.95;;;14.30;99.90;;;;;;5005584;28;114152;-71
2021/12/23 06:37:08;;;;;;;5.60;3.60;;;14.30;99.90;;;;;;5005890;28;113474;-71
2021/12/23 06:39:35;;;;;;;4.20;2.72;;;14.40;99.90;;;;;;5006436;28;112820;-70
2021/12/23 06:42:01;;;;;;;3.88;2.72;;;14.50;99.90;;;;;;5006877;28;112720;-70
2021/12/23 06:44:27;;;;;;;3.80;3.10;;;14.60;99.90;;;;;;4987996;28;113145;-69
2021/12/23 06:46:53;;;;;;;5.75;2.60;;;14.80;99.90;;;;;;5005820;28;112585;-71
2021/12/23 06:49:19;;;;;;;3.72;2.90;;;14.90;99.90;;;;;;4987971;28;112454;-69
2021/12/23 06:51:45;;;;;;;9.02;4.03;;;15.00;99.90;;;;;;5006040;28;112631;-69
2021/12/23 06:54:14;;;;;;;4.93;3.25;;;15.10;99.90;;;;;;4970590;28;115366;-68
2021/12/23 06:56:39;;;;;;;14.05;5.32;;;15.20;99.90;;;;;;5005287;28;113682;-68
2021/12/23 06:59:06;;;;;;;15.05;4.40;;;15.30;99.90;;;;;;4954818;28;112819;-69
2021/12/23 07:01:32;;;;;;;19.02;4.35;;;15.30;99.90;;;;;;5006289;28;112610;-69
2021/12/23 07:04:13;;;;;;;20.27;4.30;;;15.40;99.90;;;;;;5005124;28;113135;-71
2021/12/23 07:06:47;;;;;;;7.63;1.88;;;15.50;99.90;;;;;;5004303;28;113843;-69
2021/12/23 07:09:14;;;;;;;7.70;1.50;;;15.60;99.90;;;;;;5006248;28;112730;-69
2021/12/23 07:11:39;;;;;;;4.93;1.58;;;15.70;99.90;;;;;;4989973;28;112558;-70
2021/12/23 07:14:05;;;;;;;6.13;1.80;;;15.80;99.90;;;;;;4951359;28;114662;-70
2021/12/23 07:16:32;;;;;;;11.82;1.92;;;15.90;99.90;;;;;;4984496;28;114082;-66
2021/12/23 07:18:58;;;;;;;7.20;2.38;;;15.90;99.90;;;;;;4966915;28;114302;-69
2021/12/23 07:21:23;;;;;;;8.60;2.70;;;15.90;99.90;;;;;;4968399;28;112617;-68
2021/12/23 07:23:49;;;;;;;7.47;2.50;;;15.80;99.90;;;;;;4995536;28;114117;-65
2021/12/23 07:26:17;;;;;;;7.22;1.88;;;15.80;99.90;;;;;;5004401;28;112568;-70
2021/12/23 07:28:43;;;;;;;7.10;2.10;;;15.80;99.90;;;;;;5004950;28;112573;-68
2021/12/23 07:31:08;;;;;;;13.25;2.15;;;15.70;99.90;;;;;;5005824;28;112385;-70
2021/12/23 07:33:35;;;;;;;13.40;2.45;;;15.70;99.90;;;;;;4986088;28;114908;-66
2021/12/23 07:36:04;;;;;;;18.17;2.97;;;15.70;99.90;;;;;;5004701;28;114593;-66
2021/12/23 07:38:32;;;;;;;9.43;2.33;;;15.60;99.90;;;;;;5005271;28;112407;-68
2021/12/23 07:40:58;;;;;;;13.85;2.28;;;15.60;99.90;;;;;;4995038;22;116189;-67
2021/12/23 07:46:03;;;;;;;16.60;3.10;;;15.50;99.90;;;;;;5003562;28;112615;-68
2021/12/23 07:51:05;;;;;;;13.35;3.83;;;15.40;99.90;;;;;;4974798;28;114085;-65
2021/12/23 07:53:31;;;;;;;11.70;4.72;;;15.40;99.90;;;;;;4965209;28;113398;-66
2021/12/23 07:55:57;;;;;;;12.65;4.07;;;15.40;99.90;;;;;;4964142;28;112920;-67
2021/12/23 08:00:52;;;;;;;19.95;6.32;;;15.30;99.90;;;;;;4999070;28;114061;-70
2021/12/23 08:03:18;;;;;;;14.35;6.30;;;15.30;99.90;;;;;;5003471;28;113067;-69
2021/12/23 08:05:43;;;;;;;25.38;8.73;;;15.30;99.90;;;;;;4985325;28;113605;-68
2021/12/23 08:08:09;;;;;;;26.63;7.53;;;15.30;99.90;;;;;;5004973;28;112530;-68
2021/12/23 08:10:35;;;;;;;23.98;7.97;;;15.30;99.90;;;;;;5005572;28;112439;-67
2021/12/23 08:13:01;;;;;;;32.97;10.55;;;15.20;99.90;;;;;;4985943;28;115181;-68
2021/12/23 08:15:27;;;;;;;32.55;10.35;;;15.20;99.90;;;;;;5002629;28;112894;-69
2021/12/23 08:17:53;;;;;;;26.55;10.45;;;15.20;99.90;;;;;;4985606;28;112848;-68
2021/12/23 08:20:19;;;;;;;36.63;11.20;;;15.20;99.90;;;;;;4977449;28;112674;-69
2021/12/23 08:22:45;;;;;;;31.60;9.38;;;15.20;99.90;;;;;;4997291;28;113158;-68
2021/12/23 08:25:12;;;;;;;13.90;5.97;;;15.20;99.90;;;;;;4973765;28;114229;-66
2021/12/23 08:27:39;;;;;;;19.05;5.38;;;15.20;99.90;;;;;;4991879;28;114747;-68
2021/12/23 08:30:07;;;;;;;27.13;7.22;;;15.20;99.90;;;;;;4982672;28;114928;-67
2021/12/23 08:32:33;;;;;;;17.85;3.63;;;15.20;99.90;;;;;;4980407;28;116846;-67
2021/12/23 08:35:00;;;;;;;11.27;3.72;;;15.20;99.90;;;;;;4988664;28;113313;-69
2021/12/23 08:37:26;;;;;;;13.45;4.80;;;15.20;99.90;;;;;;4987828;28;112809;-67
2021/12/23 08:39:53;;;;;;;6.15;3.92;;;15.20;99.90;;;;;;5002726;28;112739;-68
2021/12/23 08:42:19;;;;;;;13.07;5.85;;;15.20;99.90;;;;;;4992062;28;113659;-68
2021/12/23 08:44:45;;;;;;;14.23;5.20;;;15.30;99.90;;;;;;4993556;28;112614;-69
2021/12/23 08:47:13;;;;;;;15.25;6.20;;;15.20;99.90;;;;;;5004133;28;112562;-68
2021/12/23 08:49:41;;;;;;;16.23;6.00;;;15.30;99.90;;;;;;4986908;28;112591;-69
2021/12/23 08:52:07;;;;;;;11.82;6.28;;;15.30;99.90;;;;;;5002192;28;114630;-69
2021/12/23 08:54:33;;;;;;;15.23;5.75;;;15.30;99.90;;;;;;4966473;28;112821;-69
2021/12/23 08:56:59;;;;;;;13.23;6.40;;;15.30;99.90;;;;;;4980935;28;112574;-69
2021/12/23 08:59:26;;;;;;;17.23;5.55;;;15.40;99.90;;;;;;5011671;28;112703;-67
2021/12/23 09:01:52;;;;;;;11.18;5.18;;;15.40;99.90;;;;;;5020955;28;115310;-68
2021/12/23 09:04:18;;;;;;;13.35;6.45;;;15.40;99.90;;;;;;5004792;28;113061;-67
2021/12/23 09:06:45;;;;;;;18.55;6.63;;;15.40;99.90;;;;;;5022975;28;112363;-68
2021/12/23 09:09:11;;;;;;;16.15;7.95;;;15.40;99.90;;;;;;5023950;28;112655;-70
2021/12/23 09:11:37;;;;;;;24.75;9.00;;;15.40;99.90;;;;;;5023491;28;114796;-70
2021/12/23 09:14:03;;;;;;;10.73;5.85;;;15.40;99.90;;;;;;5022540;28;113047;-70
2021/12/23 09:16:29;;;;;;;16.25;6.63;;;15.40;99.90;;;;;;5023776;28;112311;-70
2021/12/23 09:18:55;;;;;;;22.88;5.75;;;15.50;99.90;;;;;;5009333;28;115724;-64
2021/12/23 09:21:20;;;;;;;13.68;5.35;;;15.50;99.90;;;;;;5018837;27;112849;-64
2021/12/23 09:23:46;;;;;;;19.60;5.10;;;15.50;99.90;;;;;;5025978;27;112646;-65
2021/12/23 09:26:12;;;;;;;16.63;6.45;;;15.60;99.90;;;;;;5007742;28;112959;-66
2021/12/23 09:34:12;;;;;;;17.00;6.65;;;15.70;99.90;;;;;;5008579;28;112701;-68
2021/12/23 09:36:39;;;;;;;19.85;6.47;;;15.70;99.90;;;;;;4999014;28;112391;-65
2021/12/23 09:39:07;;;;;;;32.75;6.07;;;15.70;99.90;;;;;;5022667;28;113000;-67
2021/12/23 09:41:36;;;;;;;24.90;7.63;;;15.70;99.90;;;;;;4986844;28;115360;-65
2021/12/23 09:44:05;;;;;;;13.68;5.90;;;15.70;99.90;;;;;;5003039;28;115019;-64
2021/12/23 09:46:34;;;;;;;14.40;7.10;;;15.70;99.90;;;;;;5014350;22;113851;-63
2021/12/23 09:49:01;;;;;;;16.90;5.70;;;15.70;99.90;;;;;;4996267;28;112426;-63
2021/12/23 09:51:29;;;;;;;18.73;8.10;;;15.70;99.90;;;;;;5001775;28;114628;-63
2021/12/23 09:54:00;;;;;;;25.73;9.13;;;15.70;99.90;;;;;;5001745;28;112717;-64
2021/12/23 09:56:29;;;;;;;21.33;7.93;;;15.70;99.90;;;;;;5002784;28;112552;-64
2021/12/23 09:58:57;;;;;;;72.53;40.50;;;15.70;99.90;;;;;;4986956;28;112716;-65
2021/12/23 10:01:28;;;;;;;62.90;34.42;;;15.70;99.90;;;;;;4988640;28;115278;-64
2021/12/23 10:03:54;;;;;;;38.88;19.00;;;15.70;99.90;;;;;;4990946;28;113609;-64
2021/12/23 10:06:20;;;;;;;36.25;15.77;;;15.70;99.90;;;;;;4991130;28;114127;-65
2021/12/23 10:08:46;;;;;;;32.35;12.95;;;15.70;99.90;;;;;;4958453;28;114002;-66
2021/12/23 10:38:29;;;;;;;19.77;5.13;;;16.50;99.90;;;;;;4978608;28;112809;-64
2021/12/23 10:41:03;;;;;;;24.48;5.55;;;16.60;99.90;;;;;;4992706;28;112589;-65
2021/12/23 10:43:38;;;;;;;18.70;5.68;;;16.70;99.90;;;;;;4996359;28;113000;-63
2021/12/23 10:46:15;;;;;;;17.10;5.28;;;16.80;99.90;;;;;;4993068;28;112539;-60
2021/12/23 10:52:24;;;;;;;22.33;6.00;;;17.00;99.90;;;;;;4993665;28;113443;-64
2021/12/23 11:00:16;;;;;;;15.88;4.43;;;17.30;99.90;;;;;;4991055;28;112687;-62
2021/12/23 11:03:10;;;;;;;15.35;4.82;;;17.40;99.90;;;;;;4999243;28;112482;-64
2021/12/23 11:05:47;;;;;;;26.20;6.47;;;17.50;99.90;;;;;;4998333;28;113300;-63
2021/12/23 11:43:53;;;;;;;14.75;3.65;;;17.50;99.90;;;;;;5004753;28;112845;-65
2021/12/23 11:46:29;;;;;;;9.52;2.13;;;17.40;99.90;;;;;;4978922;28;113009;-65
2021/12/23 11:48:57;;;;;;;20.80;3.72;;;17.40;99.90;;;;;;4997769;28;113410;-65
2021/12/23 11:53:58;;;;;;;51.28;8.43;;;17.40;99.90;;;;;;4989820;28;112875;-67
2021/12/23 11:56:25;;;;;;;17.30;3.47;;;17.40;99.90;;;;;;4995178;28;112609;-66
2021/12/23 11:58:55;;;;;;;27.85;5.10;;;17.40;99.90;;;;;;5004999;28;113149;-65
2021/12/23 12:01:25;;;;;;;12.98;3.13;;;17.30;99.90;;;;;;5002575;28;113290;-64
2021/12/23 12:03:59;;;;;;;;;;;17.30;99.90;;;;;;4981429;28;112618;-66
2021/12/23 12:06:47;;;;;;;21.67;5.57;;;17.30;99.90;;;;;;4999136;28;115907;-67
2021/12/23 12:09:22;;;;;;;10.88;3.65;;;17.20;99.90;;;;;;4987144;22;113724;-68
2021/12/23 12:12:11;;;;;;;21.95;5.18;;;17.20;99.90;;;;;;4977766;28;113157;-67
2021/12/23 12:14:38;;;;;;;11.27;4.47;;;17.20;99.90;;;;;;4980041;28;112886;-69
2021/12/23 12:17:23;;;;;;;14.18;4.95;;;17.10;99.90;;;;;;4983444;28;114143;-65
2021/12/23 12:20:01;;;;;;;27.40;5.40;;;17.10;99.90;;;;;;4985856;28;113575;-65
2021/12/23 12:22:58;;;;;;;11.20;3.95;;;17.00;99.90;;;;;;5006682;28;113101;-65
2021/12/23 12:25:23;;;;;;;9.38;3.13;;;17.00;99.90;;;;;;4982497;28;112602;-67
2021/12/23 12:27:50;;;;;;;9.98;3.60;;;17.00;99.90;;;;;;5001783;28;112579;-66
2021/12/23 12:30:21;;;;;;;4.45;2.40;;;17.00;99.90;;;;;;4986440;28;114723;-66
2021/12/23 12:32:47;;;;;;;10.07;3.75;;;17.00;99.90;;;;;;5005578;28;112785;-65
2021/12/23 12:35:20;;;;;;;12.35;4.00;;;16.90;99.90;;;;;;4999115;28;114655;-65
2021/12/23 12:37:51;;;;;;;14.73;4.18;;;16.90;99.90;;;;;;4986294;28;112868;-66
2021/12/23 12:40:17;;;;;;;13.52;5.00;;;16.90;99.90;;;;;;4989283;28;115384;-68
2021/12/23 12:42:47;;;;;;;16.70;4.78;;;16.90;99.90;;;;;;5000856;28;114500;-65
2021/12/23 12:45:25;;;;;;;12.13;4.32;;;16.90;99.90;;;;;;5005575;28;112948;-66
2021/12/23 12:48:00;;;;;;;13.35;4.63;;;16.90;99.90;;;;;;5011629;22;114943;-66
2021/12/23 12:50:28;;;;;;;10.93;3.53;;;16.90;99.90;;;;;;5016357;28;115413;-64
2021/12/23 12:53:00;;;;;;;16.95;4.45;;;16.90;99.90;;;;;;4999546;28;115875;-65
2021/12/23 12:55:28;;;;;;;6.03;2.60;;;16.90;99.90;;;;;;5005181;28;112398;-65
2021/12/23 12:58:04;;;;;;;10.30;2.92;;;16.80;99.90;;;;;;4995788;28;114171;-65
2021/12/23 13:00:40;;;;;;;8.25;4.28;;;16.90;99.90;;;;;;4998756;28;115804;-66
2021/12/23 13:03:15;;;;;;;16.23;3.92;;;16.90;99.90;;;;;;5006776;28;112393;-68
2021/12/23 13:05:49;;;;;;;13.65;3.70;;;16.90;99.90;;;;;;4999281;28;112738;-66
2021/12/23 13:08:15;;;;;;;16.65;5.75;;;16.90;99.90;;;;;;4992370;28;112535;-68
2021/12/23 13:10:47;;;;;;;15.02;5.93;;;16.90;99.90;;;;;;5019249;28;114149;-66
2021/12/23 13:13:40;;;;;;;12.35;2.83;;;16.90;99.90;;;;;;5002907;28;113259;-65
2021/12/23 13:16:23;;;;;;;9.75;4.18;;;17.00;99.90;;;;;;5007585;28;113116;-64
2021/12/23 13:19:17;;;;;;;16.55;6.82;;;17.00;99.90;;;;;;4969256;28;112574;-67
2021/12/23 13:21:46;;;;;;;10.32;5.75;;;17.00;99.90;;;;;;5022703;28;114519;-66
2021/12/23 13:24:14;;;;;;;13.77;5.72;;;17.00;99.90;;;;;;5022728;28;113572;-66
2021/12/23 13:26:40;;;;;;;13.45;4.75;;;17.00;99.90;;;;;;5022428;28;112461;-66
2021/12/23 13:29:08;;;;;;;16.95;5.57;;;17.00;99.90;;;;;;5015146;28;112600;-65
2021/12/23 13:31:36;;;;;;;14.50;5.45;;;17.10;99.90;;;;;;5006545;28;114438;-65
2021/12/23 13:34:10;;;;;;;14.35;5.50;;;17.00;99.90;;;;;;5013909;28;112392;-64
2021/12/23 13:36:59;;;;;;;9.05;4.70;;;17.00;99.90;;;;;;5009804;28;112439;-66
2021/12/23 13:39:28;;;;;;;15.05;5.65;;;17.00;99.90;;;;;;4988263;28;112676;-67
2021/12/23 13:42:05;;;;;;;16.85;6.53;;;17.00;99.90;;;;;;4996961;28;113094;-67
2021/12/23 13:44:43;;;;;;;19.65;4.10;;;17.10;99.90;;;;;;5009402;28;112562;-65
2021/12/23 13:47:12;;;;;;;25.33;4.82;;;17.10;99.90;;;;;;5019516;28;112532;-66
2021/12/23 13:49:53;;;;;;;303.50;40.57;;;17.10;99.90;;;;;;5018639;28;112738;-64
2021/12/23 13:52:40;;;;;;;348.00;48.05;;;17.10;99.90;;;;;;5001542;28;113316;-66
2021/12/23 13:55:12;;;;;;;579.97;83.53;;;17.10;99.90;;;;;;5001608;28;114257;-67
2021/12/23 13:57:49;;;;;;;468.23;60.13;;;17.10;99.90;;;;;;4985213;28;112801;-66
2021/12/23 14:00:36;;;;;;;18.40;7.38;;;17.10;99.90;;;;;;5002903;28;112665;-67
2021/12/23 14:03:12;;;;;;;186.23;23.92;;;17.10;99.90;;;;;;5002061;28;114507;-66
2021/12/23 14:05:42;;;;;;;622.42;88.85;;;17.10;99.90;;;;;;5001144;28;114067;-67
2021/12/23 14:08:09;;;;;;;90.03;13.52;;;17.10;99.90;;;;;;5002844;28;112551;-67
2021/12/23 14:10:38;;;;;;;20.35;5.97;;;17.20;99.90;;;;;;5002457;28;112527;-66